sensor_id;sensor_type;location;lat;lon;timestamp;temperature;humidity
77207;DHT22;66190;50.708;7.906;2023-02-26T00:00:30;-2.10;99.90
77207;DHT22;66190;50.708;7.906;2023-02-26T00:02:55;-2.10;99.90
77207;DHT22;66190;50.708;7.906;2023-02-26T00:05:21;-2.10;99.90
77207;DHT22;66190;50.708;7.906;2023-02-26T00:07:46;-2.20;99.90
77207;DHT22;66190;50.708;7.906;2023-02-26T00:10:13;-2.20;99.90
77207;DHT22;66190;50.708;7.906;2023-02-26T00:12:41;-2.10;99.90
77207;DHT22;66190;50.708;7.906;2023-02-26T00:15:09;-2.20;99.90
77207;DHT22;66190;50.708;7.906;2023-02-26T00:18:01;-2.10;99.90
77207;DHT22;66190;50.708;7.906;2023-02-26T00:20:28;-2.00;99.90
77207;DHT22;66190;50.708;7.906;2023-02-26T00:22:54;-2.00;99.90
77207;DHT22;66190;50.708;7.906;2023-02-26T00:25:20;-2.00;99.90
77207;DHT22;66190;50.708;7.906;2023-02-26T00:27:46;-2.00;99.90
77207;DHT22;66190;50.708;7.906;2023-02-26T00:30:12;-2.00;99.90
77207;DHT22;66190;50.708;7.906;2023-02-26T00:32:42;-2.00;99.90
77207;DHT22;66190;50.708;7.906;2023-02-26T00:35:11;-2.00;99.90
77207;DHT22;66190;50.708;7.906;2023-02-26T00:37:57;-1.90;99.90
77207;DHT22;66190;50.708;7.906;2023-02-26T00:40:43;-1.80;99.90
77207;DHT22;66190;50.708;7.906;2023-02-26T00:43:16;-1.80;99.90
77207;DHT22;66190;50.708;7.906;2023-02-26T00:48:33;-1.80;99.90
77207;DHT22;66190;50.708;7.906;2023-02-26T00:56:26;-1.90;99.90
77207;DHT22;66190;50.708;7.906;2023-02-26T00:58:52;-1.90;99.90
77207;DHT22;66190;50.708;7.906;2023-02-26T01:01:18;-1.90;99.90
77207;DHT22;66190;50.708;7.906;2023-02-26T01:03:43;-1.90;99.90
77207;DHT22;66190;50.708;7.906;2023-02-26T01:06:14;-1.90;99.90
77207;DHT22;66190;50.708;7.906;2023-02-26T01:08:54;-1.90;99.90
77207;DHT22;66190;50.708;7.906;2023-02-26T01:11:24;-2.00;99.90
77207;DHT22;66190;50.708;7.906;2023-02-26T01:13:50;-2.00;99.90
77207;DHT22;66190;50.708;7.906;2023-02-26T01:16:21;-2.10;99.90
77207;DHT22;66190;50.708;7.906;2023-02-26T01:18:54;-2.10;99.90
77207;DHT22;66190;50.708;7.906;2023-02-26T01:21:39;-2.20;99.90
77207;DHT22;66190;50.708;7.906;2023-02-26T01:24:07;-2.20;99.90
77207;DHT22;66190;50.708;7.906;2023-02-26T01:26:37;-2.30;99.90
77207;DHT22;66190;50.708;7.906;2023-02-26T01:29:03;-2.30;99.90
77207;DHT22;66190;50.708;7.906;2023-02-26T01:31:33;-2.20;99.90
77207;DHT22;66190;50.708;7.906;2023-02-26T01:34:34;-2.20;99.90
77207;DHT22;66190;50.708;7.906;2023-02-26T01:39:47;-2.10;99.90
77207;DHT22;66190;50.708;7.906;2023-02-26T01:42:19;-2.10;99.90
77207;DHT22;66190;50.708;7.906;2023-02-26T01:44:54;-2.10;99.90
77207;DHT22;66190;50.708;7.906;2023-02-26T01:49:46;-2.10;99.90
77207;DHT22;66190;50.708;7.906;2023-02-26T01:54:56;-2.10;99.90
77207;DHT22;66190;50.708;7.906;2023-02-26T01:57:22;-2.00;99.90
77207;DHT22;66190;50.708;7.906;2023-02-26T01:59:50;-2.10;99.90
77207;DHT22;66190;50.708;7.906;2023-02-26T02:02:21;-2.10;99.90
77207;DHT22;66190;50.708;7.906;2023-02-26T02:04:48;-2.20;99.90
77207;DHT22;66190;50.708;7.906;2023-02-26T02:07:15;-2.20;99.90
77207;DHT22;66190;50.708;7.906;2023-02-26T02:09:41;-2.20;99.90
77207;DHT22;66190;50.708;7.906;2023-02-26T02:12:23;-2.20;99.90
77207;DHT22;66190;50.708;7.906;2023-02-26T02:23:29;-2.50;99.90
77207;DHT22;66190;50.708;7.906;2023-02-26T02:31:43;-2.60;99.90
77207;DHT22;66190;50.708;7.906;2023-02-26T02:36:46;-2.70;99.90
77207;DHT22;66190;50.708;7.906;2023-02-26T02:41:49;-2.60;99.90
77207;DHT22;66190;50.708;7.906;2023-02-26T02:44:18;-2.60;99.90
77207;DHT22;66190;50.708;7.906;2023-02-26T02:46:46;-2.60;99.90
77207;DHT22;66190;50.708;7.906;2023-02-26T02:49:23;-2.60;99.90
77207;DHT22;66190;50.708;7.906;2023-02-26T02:52:02;-2.60;99.90
77207;DHT22;66190;50.708;7.906;2023-02-26T02:54:45;-2.70;99.90
77207;DHT22;66190;50.708;7.906;2023-02-26T02:57:22;-2.70;99.90
77207;DHT22;66190;50.708;7.906;2023-02-26T02:59:57;-2.80;99.90
77207;DHT22;66190;50.708;7.906;2023-02-26T03:02:40;-2.80;99.90
77207;DHT22;66190;50.708;7.906;2023-02-26T03:05:10;-2.90;99.90
77207;DHT22;66190;50.708;7.906;2023-02-26T03:08:04;-2.90;99.90
77207;DHT22;66190;50.708;7.906;2023-02-26T03:10:27;-2.90;99.90
77207;DHT22;66190;50.708;7.906;2023-02-26T03:12:53;-2.90;99.90
77207;DHT22;66190;50.708;7.906;2023-02-26T03:15:30;-3.00;99.90
77207;DHT22;66190;50.708;7.906;2023-02-26T03:18:12;-3.00;99.90
77207;DHT22;66190;50.708;7.906;2023-02-26T03:29:23;-3.00;99.90
77207;DHT22;66190;50.708;7.906;2023-02-26T03:31:54;-3.00;99.90
77207;DHT22;66190;50.708;7.906;2023-02-26T03:37:24;-3.10;99.90
77207;DHT22;66190;50.708;7.906;2023-02-26T03:39:57;-3.10;99.90
77207;DHT22;66190;50.708;7.906;2023-02-26T03:42:35;-3.10;99.90
77207;DHT22;66190;50.708;7.906;2023-02-26T03:45:11;-3.20;99.90
77207;DHT22;66190;50.708;7.906;2023-02-26T03:47:40;-3.20;99.90
77207;DHT22;66190;50.708;7.906;2023-02-26T03:50:12;-3.10;99.90
77207;DHT22;66190;50.708;7.906;2023-02-26T03:52:42;-3.10;99.90
77207;DHT22;66190;50.708;7.906;2023-02-26T03:55:19;-3.10;99.90
77207;DHT22;66190;50.708;7.906;2023-02-26T03:57:46;-3.00;99.90
77207;DHT22;66190;50.708;7.906;2023-02-26T04:00:14;-3.10;99.90
77207;DHT22;66190;50.708;7.906;2023-02-26T04:05:17;-2.90;99.90
77207;DHT22;66190;50.708;7.906;2023-02-26T04:07:44;-2.80;99.90
77207;DHT22;66190;50.708;7.906;2023-02-26T04:10:14;-2.90;99.90
77207;DHT22;66190;50.708;7.906;2023-02-26T04:12:41;-2.90;99.90
77207;DHT22;66190;50.708;7.906;2023-02-26T04:15:08;-3.00;99.90
77207;DHT22;66190;50.708;7.906;2023-02-26T04:17:34;-3.00;99.90
77207;DHT22;66190;50.708;7.906;2023-02-26T04:19:59;-3.10;99.90
77207;DHT22;66190;50.708;7.906;2023-02-26T04:22:25;-3.10;99.90
77207;DHT22;66190;50.708;7.906;2023-02-26T04:24:51;-3.10;99.90
77207;DHT22;66190;50.708;7.906;2023-02-26T04:27:16;-3.10;99.90
77207;DHT22;66190;50.708;7.906;2023-02-26T04:29:42;-3.10;99.90
77207;DHT22;66190;50.708;7.906;2023-02-26T04:32:07;-3.20;99.90
77207;DHT22;66190;50.708;7.906;2023-02-26T04:34:33;-3.20;99.90
77207;DHT22;66190;50.708;7.906;2023-02-26T04:36:59;-3.20;99.90
77207;DHT22;66190;50.708;7.906;2023-02-26T04:39:24;-3.30;99.90
77207;DHT22;66190;50.708;7.906;2023-02-26T04:41:50;-3.30;99.90
77207;DHT22;66190;50.708;7.906;2023-02-26T04:44:16;-3.30;99.90
77207;DHT22;66190;50.708;7.906;2023-02-26T04:46:41;-3.30;99.90
77207;DHT22;66190;50.708;7.906;2023-02-26T04:49:07;-3.30;99.90
77207;DHT22;66190;50.708;7.906;2023-02-26T04:51:33;-3.30;99.90
77207;DHT22;66190;50.708;7.906;2023-02-26T04:53:59;-3.30;99.90
77207;DHT22;66190;50.708;7.906;2023-02-26T04:56:25;-3.30;99.90
77207;DHT22;66190;50.708;7.906;2023-02-26T04:58:50;-3.30;99.90
77207;DHT22;66190;50.708;7.906;2023-02-26T05:01:16;-3.40;99.90
77207;DHT22;66190;50.708;7.906;2023-02-26T05:03:41;-3.30;99.90
77207;DHT22;66190;50.708;7.906;2023-02-26T05:06:07;-3.30;99.90
77207;DHT22;66190;50.708;7.906;2023-02-26T05:08:33;-3.20;99.90
77207;DHT22;66190;50.708;7.906;2023-02-26T05:10:59;-3.30;99.90
77207;DHT22;66190;50.708;7.906;2023-02-26T05:13:25;-3.30;99.90
77207;DHT22;66190;50.708;7.906;2023-02-26T05:15:52;-3.30;99.90
77207;DHT22;66190;50.708;7.906;2023-02-26T05:18:18;-3.40;99.90
77207;DHT22;66190;50.708;7.906;2023-02-26T05:20:43;-3.40;99.90
77207;DHT22;66190;50.708;7.906;2023-02-26T05:23:09;-3.40;99.90
77207;DHT22;66190;50.708;7.906;2023-02-26T05:25:35;-3.40;99.90
77207;DHT22;66190;50.708;7.906;2023-02-26T05:28:01;-3.40;99.90
77207;DHT22;66190;50.708;7.906;2023-02-26T05:30:26;-3.40;99.90
77207;DHT22;66190;50.708;7.906;2023-02-26T05:32:52;-3.40;99.90
77207;DHT22;66190;50.708;7.906;2023-02-26T05:35:19;-3.50;99.90
77207;DHT22;66190;50.708;7.906;2023-02-26T05:37:44;-3.40;99.90
77207;DHT22;66190;50.708;7.906;2023-02-26T05:40:11;-3.40;99.90
77207;DHT22;66190;50.708;7.906;2023-02-26T05:42:37;-3.40;99.90
77207;DHT22;66190;50.708;7.906;2023-02-26T05:45:04;-3.50;99.90
77207;DHT22;66190;50.708;7.906;2023-02-26T05:47:32;-3.60;99.90
77207;DHT22;66190;50.708;7.906;2023-02-26T05:49:57;-3.60;99.90
77207;DHT22;66190;50.708;7.906;2023-02-26T05:52:23;-3.50;99.90
77207;DHT22;66190;50.708;7.906;2023-02-26T05:54:49;-3.50;99.90
77207;DHT22;66190;50.708;7.906;2023-02-26T05:57:14;-3.60;99.90
77207;DHT22;66190;50.708;7.906;2023-02-26T05:59:40;-3.60;99.90
77207;DHT22;66190;50.708;7.906;2023-02-26T06:02:08;-3.70;99.90
77207;DHT22;66190;50.708;7.906;2023-02-26T06:04:33;-3.70;99.90
77207;DHT22;66190;50.708;7.906;2023-02-26T06:07:00;-3.60;99.90
77207;DHT22;66190;50.708;7.906;2023-02-26T06:09:26;-3.60;99.90
77207;DHT22;66190;50.708;7.906;2023-02-26T06:11:52;-3.60;99.90
77207;DHT22;66190;50.708;7.906;2023-02-26T06:14:17;-3.60;99.90
77207;DHT22;66190;50.708;7.906;2023-02-26T06:16:43;-3.60;99.90
77207;DHT22;66190;50.708;7.906;2023-02-26T06:19:09;-3.60;99.90
77207;DHT22;66190;50.708;7.906;2023-02-26T06:21:38;-3.60;99.90
77207;DHT22;66190;50.708;7.906;2023-02-26T06:24:03;-3.60;99.90
77207;DHT22;66190;50.708;7.906;2023-02-26T06:26:29;-3.50;99.90
77207;DHT22;66190;50.708;7.906;2023-02-26T06:28:55;-3.50;99.90
77207;DHT22;66190;50.708;7.906;2023-02-26T06:31:20;-3.50;99.90
77207;DHT22;66190;50.708;7.906;2023-02-26T06:33:46;-3.50;99.90
77207;DHT22;66190;50.708;7.906;2023-02-26T06:36:12;-3.50;99.90
77207;DHT22;66190;50.708;7.906;2023-02-26T06:38:37;-3.50;99.90
77207;DHT22;66190;50.708;7.906;2023-02-26T06:41:03;-3.50;99.90
77207;DHT22;66190;50.708;7.906;2023-02-26T06:43:29;-3.50;99.90
77207;DHT22;66190;50.708;7.906;2023-02-26T06:45:58;-3.40;99.90
77207;DHT22;66190;50.708;7.906;2023-02-26T06:48:24;-3.40;99.90
77207;DHT22;66190;50.708;7.906;2023-02-26T06:50:50;-3.40;99.90
77207;DHT22;66190;50.708;7.906;2023-02-26T06:53:16;-3.40;99.90
77207;DHT22;66190;50.708;7.906;2023-02-26T06:55:43;-3.40;99.90
77207;DHT22;66190;50.708;7.906;2023-02-26T06:58:09;-3.30;99.90
77207;DHT22;66190;50.708;7.906;2023-02-26T07:00:35;-3.30;99.90
77207;DHT22;66190;50.708;7.906;2023-02-26T07:03:03;-3.30;99.90
77207;DHT22;66190;50.708;7.906;2023-02-26T07:05:28;-3.20;99.90
77207;DHT22;66190;50.708;7.906;2023-02-26T07:07:54;-3.30;99.90
77207;DHT22;66190;50.708;7.906;2023-02-26T07:10:20;-3.20;99.90
77207;DHT22;66190;50.708;7.906;2023-02-26T07:12:50;-3.20;99.90
77207;DHT22;66190;50.708;7.906;2023-02-26T07:15:15;-3.20;99.90
77207;DHT22;66190;50.708;7.906;2023-02-26T07:17:42;-3.10;99.90
77207;DHT22;66190;50.708;7.906;2023-02-26T07:20:08;-3.10;99.90
77207;DHT22;66190;50.708;7.906;2023-02-26T07:22:37;-3.00;99.90
77207;DHT22;66190;50.708;7.906;2023-02-26T07:25:05;-3.10;99.90
77207;DHT22;66190;50.708;7.906;2023-02-26T07:27:32;-3.10;99.90
77207;DHT22;66190;50.708;7.906;2023-02-26T07:29:59;-3.10;99.90
77207;DHT22;66190;50.708;7.906;2023-02-26T07:32:24;-3.00;99.90
77207;DHT22;66190;50.708;7.906;2023-02-26T07:34:51;-3.00;99.90
77207;DHT22;66190;50.708;7.906;2023-02-26T07:37:16;-3.10;99.90
77207;DHT22;66190;50.708;7.906;2023-02-26T07:39:42;-3.00;99.90
77207;DHT22;66190;50.708;7.906;2023-02-26T07:42:08;-3.00;99.90
77207;DHT22;66190;50.708;7.906;2023-02-26T07:44:33;-3.00;99.90
77207;DHT22;66190;50.708;7.906;2023-02-26T07:46:59;-2.80;99.90
77207;DHT22;66190;50.708;7.906;2023-02-26T07:49:25;-2.70;99.90
77207;DHT22;66190;50.708;7.906;2023-02-26T07:51:50;-2.70;99.90
77207;DHT22;66190;50.708;7.906;2023-02-26T07:54:16;-2.60;99.90
77207;DHT22;66190;50.708;7.906;2023-02-26T07:56:42;-2.60;99.90
77207;DHT22;66190;50.708;7.906;2023-02-26T07:59:09;-2.50;99.90
77207;DHT22;66190;50.708;7.906;2023-02-26T08:01:35;-2.50;99.90
77207;DHT22;66190;50.708;7.906;2023-02-26T08:04:01;-2.50;99.90
77207;DHT22;66190;50.708;7.906;2023-02-26T08:06:28;-2.50;99.90
77207;DHT22;66190;50.708;7.906;2023-02-26T08:08:53;-2.40;99.90
77207;DHT22;66190;50.708;7.906;2023-02-26T08:11:19;-2.40;99.90
77207;DHT22;66190;50.708;7.906;2023-02-26T08:13:45;-2.30;99.90
77207;DHT22;66190;50.708;7.906;2023-02-26T08:16:10;-2.20;99.90
77207;DHT22;66190;50.708;7.906;2023-02-26T08:18:36;-2.20;99.90
77207;DHT22;66190;50.708;7.906;2023-02-26T08:21:02;-2.20;99.90
77207;DHT22;66190;50.708;7.906;2023-02-26T08:23:28;-2.10;99.90
77207;DHT22;66190;50.708;7.906;2023-02-26T08:26:06;-2.00;99.90
77207;DHT22;66190;50.708;7.906;2023-02-26T08:28:32;-1.80;99.90
77207;DHT22;66190;50.708;7.906;2023-02-26T08:30:58;-1.80;99.90
77207;DHT22;66190;50.708;7.906;2023-02-26T08:33:24;-1.70;99.90
77207;DHT22;66190;50.708;7.906;2023-02-26T08:35:50;-1.60;99.90
77207;DHT22;66190;50.708;7.906;2023-02-26T08:38:15;-1.60;99.90
77207;DHT22;66190;50.708;7.906;2023-02-26T08:40:41;-1.60;99.90
77207;DHT22;66190;50.708;7.906;2023-02-26T08:43:07;-1.50;99.90
77207;DHT22;66190;50.708;7.906;2023-02-26T08:45:34;-1.50;99.90
77207;DHT22;66190;50.708;7.906;2023-02-26T08:47:59;-1.50;99.90
77207;DHT22;66190;50.708;7.906;2023-02-26T08:50:25;-1.40;99.90
77207;DHT22;66190;50.708;7.906;2023-02-26T08:52:51;-1.30;99.90
77207;DHT22;66190;50.708;7.906;2023-02-26T08:55:17;-1.30;99.90
77207;DHT22;66190;50.708;7.906;2023-02-26T08:57:42;-1.30;99.90
77207;DHT22;66190;50.708;7.906;2023-02-26T09:00:09;-1.30;99.90
77207;DHT22;66190;50.708;7.906;2023-02-26T09:02:38;-1.10;99.90
77207;DHT22;66190;50.708;7.906;2023-02-26T09:05:04;-1.00;99.90
77207;DHT22;66190;50.708;7.906;2023-02-26T09:07:30;-1.10;99.90
77207;DHT22;66190;50.708;7.906;2023-02-26T09:09:56;-1.00;99.90
77207;DHT22;66190;50.708;7.906;2023-02-26T09:12:21;-1.00;99.90
77207;DHT22;66190;50.708;7.906;2023-02-26T09:17:22;-0.80;99.90
77207;DHT22;66190;50.708;7.906;2023-02-26T09:19:48;-0.80;99.90
77207;DHT22;66190;50.708;7.906;2023-02-26T09:22:14;-0.80;99.90
77207;DHT22;66190;50.708;7.906;2023-02-26T09:24:40;-0.90;99.90
77207;DHT22;66190;50.708;7.906;2023-02-26T09:27:06;-0.90;99.90
77207;DHT22;66190;50.708;7.906;2023-02-26T09:29:32;-0.90;99.90
77207;DHT22;66190;50.708;7.906;2023-02-26T09:31:57;-1.00;99.90
77207;DHT22;66190;50.708;7.906;2023-02-26T09:34:23;-1.00;99.10
77207;DHT22;66190;50.708;7.906;2023-02-26T09:36:49;-1.00;99.00
77207;DHT22;66190;50.708;7.906;2023-02-26T09:39:14;-1.00;99.70
77207;DHT22;66190;50.708;7.906;2023-02-26T09:41:43;-0.90;99.60
77207;DHT22;66190;50.708;7.906;2023-02-26T09:54:46;-0.10;95.90
77207;DHT22;66190;50.708;7.906;2023-02-26T09:57:36;-0.20;96.30
77207;DHT22;66190;50.708;7.906;2023-02-26T10:00:33;-0.10;96.10
77207;DHT22;66190;50.708;7.906;2023-02-26T10:06:25;0.20;95.60
77207;DHT22;66190;50.708;7.906;2023-02-26T10:12:17;0.50;93.00
77207;DHT22;66190;50.708;7.906;2023-02-26T10:23:44;0.20;94.00
77207;DHT22;66190;50.708;7.906;2023-02-26T10:26:00;0.10;94.40
77207;DHT22;66190;50.708;7.906;2023-02-26T10:31:01;0.20;93.90
77207;DHT22;66190;50.708;7.906;2023-02-26T10:38:57;0.10;94.70
77207;DHT22;66190;50.708;7.906;2023-02-26T10:41:25;0.10;96.50
77207;DHT22;66190;50.708;7.906;2023-02-26T10:44:08;0.10;96.70
77207;DHT22;66190;50.708;7.906;2023-02-26T10:46:46;0.00;93.60
77207;DHT22;66190;50.708;7.906;2023-02-26T10:51:49;0.20;95.20
77207;DHT22;66190;50.708;7.906;2023-02-26T10:54:32;0.60;94.50
77207;DHT22;66190;50.708;7.906;2023-02-26T10:56:59;0.40;92.50
77207;DHT22;66190;50.708;7.906;2023-02-26T10:59:26;0.30;86.70
77207;DHT22;66190;50.708;7.906;2023-02-26T11:01:52;0.40;91.70
77207;DHT22;66190;50.708;7.906;2023-02-26T11:04:21;0.60;90.40
77207;DHT22;66190;50.708;7.906;2023-02-26T11:06:52;0.70;88.70
77207;DHT22;66190;50.708;7.906;2023-02-26T11:09:35;0.60;88.50
77207;DHT22;66190;50.708;7.906;2023-02-26T11:12:14;0.80;91.40
77207;DHT22;66190;50.708;7.906;2023-02-26T11:14:44;0.70;92.50
77207;DHT22;66190;50.708;7.906;2023-02-26T11:17:17;0.60;89.20
77207;DHT22;66190;50.708;7.906;2023-02-26T11:22:21;0.40;91.60
77207;DHT22;66190;50.708;7.906;2023-02-26T11:24:48;0.40;93.20
77207;DHT22;66190;50.708;7.906;2023-02-26T11:27:19;0.50;91.80
77207;DHT22;66190;50.708;7.906;2023-02-26T11:29:54;0.70;91.90
77207;DHT22;66190;50.708;7.906;2023-02-26T11:32:30;0.60;92.30
77207;DHT22;66190;50.708;7.906;2023-02-26T11:34:56;0.30;91.80
77207;DHT22;66190;50.708;7.906;2023-02-26T11:37:33;0.10;90.10
77207;DHT22;66190;50.708;7.906;2023-02-26T11:40:33;0.20;91.80
77207;DHT22;66190;50.708;7.906;2023-02-26T11:43:04;0.20;90.70
77207;DHT22;66190;50.708;7.906;2023-02-26T11:45:30;0.20;86.20
77207;DHT22;66190;50.708;7.906;2023-02-26T11:48:05;0.30;89.30
77207;DHT22;66190;50.708;7.906;2023-02-26T11:50:45;0.20;76.20
77207;DHT22;66190;50.708;7.906;2023-02-26T11:53:35;0.20;87.60
77207;DHT22;66190;50.708;7.906;2023-02-26T11:56:07;0.10;85.30
77207;DHT22;66190;50.708;7.906;2023-02-26T11:58:37;0.20;87.20
77207;DHT22;66190;50.708;7.906;2023-02-26T12:01:04;0.30;86.20
77207;DHT22;66190;50.708;7.906;2023-02-26T12:03:33;0.30;86.70
77207;DHT22;66190;50.708;7.906;2023-02-26T12:06:01;0.40;86.30
77207;DHT22;66190;50.708;7.906;2023-02-26T12:08:37;0.50;85.40
77207;DHT22;66190;50.708;7.906;2023-02-26T12:16:56;0.70;68.90
77207;DHT22;66190;50.708;7.906;2023-02-26T12:19:44;0.80;72.70
77207;DHT22;66190;50.708;7.906;2023-02-26T12:33:28;0.40;71.90
77207;DHT22;66190;50.708;7.906;2023-02-26T12:39:02;0.30;67.80
77207;DHT22;66190;50.708;7.906;2023-02-26T13:14:27;0.30;71.60
77207;DHT22;66190;50.708;7.906;2023-02-26T13:19:53;0.40;74.20
77207;DHT22;66190;50.708;7.906;2023-02-26T13:22:27;0.40;78.40
77207;DHT22;66190;50.708;7.906;2023-02-26T13:25:01;0.40;79.40
77207;DHT22;66190;50.708;7.906;2023-02-26T13:27:32;0.50;81.00
77207;DHT22;66190;50.708;7.906;2023-02-26T13:30:24;0.50;66.10
77207;DHT22;66190;50.708;7.906;2023-02-26T13:32:55;0.50;76.00
77207;DHT22;66190;50.708;7.906;2023-02-26T13:35:36;1.00;69.10
77207;DHT22;66190;50.708;7.906;2023-02-26T13:38:37;1.00;64.80
77207;DHT22;66190;50.708;7.906;2023-02-26T13:41:14;1.30;66.60
77207;DHT22;66190;50.708;7.906;2023-02-26T13:43:48;1.20;66.10
77207;DHT22;66190;50.708;7.906;2023-02-26T13:51:45;1.20;73.60
77207;DHT22;66190;50.708;7.906;2023-02-26T13:59:29;1.60;66.30
77207;DHT22;66190;50.708;7.906;2023-02-26T14:04:29;1.70;66.20
77207;DHT22;66190;50.708;7.906;2023-02-26T14:07:12;1.60;57.40
77207;DHT22;66190;50.708;7.906;2023-02-26T14:10:01;1.20;60.20
77207;DHT22;66190;50.708;7.906;2023-02-26T14:12:35;1.30;68.30
77207;DHT22;66190;50.708;7.906;2023-02-26T14:18:00;1.60;63.30
77207;DHT22;66190;50.708;7.906;2023-02-26T14:20:28;1.50;63.40
77207;DHT22;66190;50.708;7.906;2023-02-26T14:25:44;1.60;72.40
77207;DHT22;66190;50.708;7.906;2023-02-26T14:30:52;1.90;59.10
77207;DHT22;66190;50.708;7.906;2023-02-26T14:33:26;1.90;62.20
77207;DHT22;66190;50.708;7.906;2023-02-26T14:35:53;2.00;57.10
77207;DHT22;66190;50.708;7.906;2023-02-26T14:38:29;2.20;55.70
77207;DHT22;66190;50.708;7.906;2023-02-26T14:43:43;2.20;56.30
77207;DHT22;66190;50.708;7.906;2023-02-26T14:46:10;2.10;55.30
77207;DHT22;66190;50.708;7.906;2023-02-26T14:48:37;2.30;57.10
77207;DHT22;66190;50.708;7.906;2023-02-26T14:59:56;1.90;59.50
77207;DHT22;66190;50.708;7.906;2023-02-26T15:32:39;1.30;58.40
77207;DHT22;66190;50.708;7.906;2023-02-26T15:35:16;1.20;60.10
77207;DHT22;66190;50.708;7.906;2023-02-26T15:37:45;1.10;64.20
77207;DHT22;66190;50.708;7.906;2023-02-26T15:40:13;1.10;59.80
77207;DHT22;66190;50.708;7.906;2023-02-26T15:42:41;1.10;59.40
77207;DHT22;66190;50.708;7.906;2023-02-26T15:45:42;1.00;57.80
77207;DHT22;66190;50.708;7.906;2023-02-26T15:48:18;0.90;58.40
77207;DHT22;66190;50.708;7.906;2023-02-26T15:50:47;0.90;57.40
77207;DHT22;66190;50.708;7.906;2023-02-26T15:53:23;1.00;60.70
77207;DHT22;66190;50.708;7.906;2023-02-26T15:55:54;1.10;59.90
77207;DHT22;66190;50.708;7.906;2023-02-26T15:58:38;1.10;58.40
77207;DHT22;66190;50.708;7.906;2023-02-26T16:01:05;1.10;59.20
77207;DHT22;66190;50.708;7.906;2023-02-26T16:03:36;1.00;56.10
77207;DHT22;66190;50.708;7.906;2023-02-26T16:06:02;0.90;56.40
77207;DHT22;66190;50.708;7.906;2023-02-26T16:08:28;0.80;56.10
77207;DHT22;66190;50.708;7.906;2023-02-26T16:10:56;0.80;57.60
77207;DHT22;66190;50.708;7.906;2023-02-26T16:13:30;0.80;58.60
77207;DHT22;66190;50.708;7.906;2023-02-26T16:16:05;0.70;58.70
77207;DHT22;66190;50.708;7.906;2023-02-26T16:18:35;0.70;61.80
77207;DHT22;66190;50.708;7.906;2023-02-26T16:21:02;0.60;62.00
77207;DHT22;66190;50.708;7.906;2023-02-26T16:23:44;0.50;65.10
77207;DHT22;66190;50.708;7.906;2023-02-26T16:29:00;0.50;64.20
77207;DHT22;66190;50.708;7.906;2023-02-26T16:31:27;0.40;63.20
77207;DHT22;66190;50.708;7.906;2023-02-26T16:34:02;0.30;64.30
77207;DHT22;66190;50.708;7.906;2023-02-26T16:36:37;0.20;64.10
77207;DHT22;66190;50.708;7.906;2023-02-26T16:41:32;0.10;66.80
77207;DHT22;66190;50.708;7.906;2023-02-26T16:44:02;0.10;69.60
77207;DHT22;66190;50.708;7.906;2023-02-26T16:49:04;0.00;75.70
77207;DHT22;66190;50.708;7.906;2023-02-26T16:51:33;-0.10;72.40
77207;DHT22;66190;50.708;7.906;2023-02-26T16:54:03;-0.10;64.40
77207;DHT22;66190;50.708;7.906;2023-02-26T16:56:32;-0.20;66.40
77207;DHT22;66190;50.708;7.906;2023-02-26T16:59:16;-0.20;67.30
77207;DHT22;66190;50.708;7.906;2023-02-26T17:01:53;-0.20;68.80
77207;DHT22;66190;50.708;7.906;2023-02-26T17:04:26;-0.30;64.30
77207;DHT22;66190;50.708;7.906;2023-02-26T17:06:53;-0.30;68.00
77207;DHT22;66190;50.708;7.906;2023-02-26T17:09:39;-0.30;69.60
77207;DHT22;66190;50.708;7.906;2023-02-26T17:12:14;-0.40;79.40
77207;DHT22;66190;50.708;7.906;2023-02-26T17:14:42;-0.50;77.80
77207;DHT22;66190;50.708;7.906;2023-02-26T17:17:09;-0.50;78.30
77207;DHT22;66190;50.708;7.906;2023-02-26T17:19:35;-0.60;82.90
77207;DHT22;66190;50.708;7.906;2023-02-26T17:22:01;-0.60;84.40
77207;DHT22;66190;50.708;7.906;2023-02-26T17:24:36;-0.70;87.60
77207;DHT22;66190;50.708;7.906;2023-02-26T17:27:06;-0.70;83.90
77207;DHT22;66190;50.708;7.906;2023-02-26T17:29:40;-0.70;82.80
77207;DHT22;66190;50.708;7.906;2023-02-26T17:32:14;-0.70;84.30
77207;DHT22;66190;50.708;7.906;2023-02-26T17:34:40;-0.80;85.60
77207;DHT22;66190;50.708;7.906;2023-02-26T17:37:11;-0.80;86.70
77207;DHT22;66190;50.708;7.906;2023-02-26T17:39:37;-0.80;86.50
77207;DHT22;66190;50.708;7.906;2023-02-26T17:42:03;-0.80;84.60
77207;DHT22;66190;50.708;7.906;2023-02-26T17:44:28;-0.80;88.70
77207;DHT22;66190;50.708;7.906;2023-02-26T17:46:54;-0.90;89.70
77207;DHT22;66190;50.708;7.906;2023-02-26T17:49:20;-0.90;89.70
77207;DHT22;66190;50.708;7.906;2023-02-26T17:51:45;-1.00;90.50
77207;DHT22;66190;50.708;7.906;2023-02-26T17:54:11;-1.00;90.60
77207;DHT22;66190;50.708;7.906;2023-02-26T17:56:37;-1.00;90.30
77207;DHT22;66190;50.708;7.906;2023-02-26T17:59:03;-1.00;91.60
77207;DHT22;66190;50.708;7.906;2023-02-26T18:01:30;-1.00;92.40
77207;DHT22;66190;50.708;7.906;2023-02-26T18:03:56;-1.00;90.90
77207;DHT22;66190;50.708;7.906;2023-02-26T18:06:23;-1.00;92.60
77207;DHT22;66190;50.708;7.906;2023-02-26T18:08:49;-1.10;93.00
77207;DHT22;66190;50.708;7.906;2023-02-26T18:11:16;-1.10;93.00
77207;DHT22;66190;50.708;7.906;2023-02-26T18:13:42;-1.20;93.60
77207;DHT22;66190;50.708;7.906;2023-02-26T18:16:16;-1.30;94.20
77207;DHT22;66190;50.708;7.906;2023-02-26T18:18:43;-1.40;94.70
77207;DHT22;66190;50.708;7.906;2023-02-26T18:21:08;-1.50;95.50
77207;DHT22;66190;50.708;7.906;2023-02-26T18:23:34;-1.50;95.50
77207;DHT22;66190;50.708;7.906;2023-02-26T18:26:00;-1.60;95.80
77207;DHT22;66190;50.708;7.906;2023-02-26T18:28:27;-1.60;95.70
77207;DHT22;66190;50.708;7.906;2023-02-26T18:30:54;-1.60;95.70
77207;DHT22;66190;50.708;7.906;2023-02-26T18:33:21;-1.60;95.30
77207;DHT22;66190;50.708;7.906;2023-02-26T18:35:49;-1.60;95.50
77207;DHT22;66190;50.708;7.906;2023-02-26T18:38:20;-1.60;95.30
77207;DHT22;66190;50.708;7.906;2023-02-26T18:40:47;-1.60;94.80
77207;DHT22;66190;50.708;7.906;2023-02-26T18:43:13;-1.50;94.80
77207;DHT22;66190;50.708;7.906;2023-02-26T18:45:43;-1.60;95.00
77207;DHT22;66190;50.708;7.906;2023-02-26T18:48:14;-1.60;95.10
77207;DHT22;66190;50.708;7.906;2023-02-26T18:50:42;-1.50;94.90
77207;DHT22;66190;50.708;7.906;2023-02-26T18:53:08;-1.50;95.20
77207;DHT22;66190;50.708;7.906;2023-02-26T18:55:34;-1.60;95.80
77207;DHT22;66190;50.708;7.906;2023-02-26T18:58:00;-1.60;95.30
77207;DHT22;66190;50.708;7.906;2023-02-26T19:00:26;-1.70;95.80
77207;DHT22;66190;50.708;7.906;2023-02-26T19:02:53;-1.70;96.20
77207;DHT22;66190;50.708;7.906;2023-02-26T19:05:19;-1.70;96.20
77207;DHT22;66190;50.708;7.906;2023-02-26T19:07:48;-1.70;96.10
77207;DHT22;66190;50.708;7.906;2023-02-26T19:10:14;-1.70;96.50
77207;DHT22;66190;50.708;7.906;2023-02-26T19:12:41;-1.80;97.00
77207;DHT22;66190;50.708;7.906;2023-02-26T19:15:08;-1.90;97.10
77207;DHT22;66190;50.708;7.906;2023-02-26T19:17:33;-1.80;96.30
77207;DHT22;66190;50.708;7.906;2023-02-26T19:19:59;-1.70;96.20
77207;DHT22;66190;50.708;7.906;2023-02-26T19:22:25;-1.60;96.30
77207;DHT22;66190;50.708;7.906;2023-02-26T19:24:50;-1.60;95.80
77207;DHT22;66190;50.708;7.906;2023-02-26T19:27:17;-1.70;96.00